Time;durP1;ratioP1;P1;durP2;ratioP2;P2;SDS_P1;SDS_P2;PMS_P1;PMS_P2;Temp;Humidity;BMP_temperature;BMP_pressure;BME280_temperature;BME280_humidity;BME280_pressure;Samples;Min_cycle;Max_cycle;Signal;HPM_P1;HPM_P2
2022/03/01 00:01:37;;;;;;;20.63;15.23;;;0.60;99.90;;;;;;5033580;28;20218;-62
2022/03/01 00:04:05;;;;;;;22.25;16.17;;;0.60;99.90;;;;;;5034024;28;20198;-62
2022/03/01 00:06:32;;;;;;;22.50;15.55;;;0.50;99.90;;;;;;5034074;28;20226;-62
2022/03/01 00:08:59;;;;;;;22.63;13.65;;;0.50;99.90;;;;;;5033765;28;20202;-62
2022/03/01 00:11:27;;;;;;;26.25;14.63;;;0.50;99.90;;;;;;5033366;28;20209;-62
2022/03/01 00:13:54;;;;;;;23.75;14.23;;;0.50;99.90;;;;;;5033577;28;20222;-61
2022/03/01 00:16:22;;;;;;;25.25;16.42;;;0.50;99.90;;;;;;5032915;28;20601;-62
2022/03/01 00:18:49;;;;;;;22.52;13.95;;;0.50;99.90;;;;;;5033405;28;20252;-61
2022/03/01 00:21:16;;;;;;;24.08;14.07;;;0.40;99.90;;;;;;5033060;28;20207;-62
2022/03/01 00:23:43;;;;;;;23.05;15.52;;;0.40;99.90;;;;;;5033227;28;20198;-61
2022/03/01 00:26:10;;;;;;;26.20;15.75;;;0.40;99.90;;;;;;5036931;28;20229;-62
2022/03/01 00:28:38;;;;;;;22.45;14.02;;;0.30;99.90;;;;;;5036957;28;20209;-61
2022/03/01 00:31:06;;;;;;;25.60;15.27;;;0.30;99.90;;;;;;5037000;28;20221;-61
2022/03/01 00:33:33;;;;;;;22.80;15.65;;;0.30;99.90;;;;;;5037046;28;20229;-62
2022/03/01 00:36:00;;;;;;;24.80;15.85;;;0.20;99.90;;;;;;5038570;28;20225;-62
2022/03/01 00:38:28;;;;;;;21.98;15.52;;;0.20;99.90;;;;;;5037350;28;20197;-62
2022/03/01 00:40:55;;;;;;;22.02;14.40;;;0.20;99.90;;;;;;5037309;28;20206;-62
2022/03/01 00:43:22;;;;;;;28.38;15.55;;;0.10;99.90;;;;;;5037051;28;20571;-62
2022/03/01 00:45:51;;;;;;;24.80;14.65;;;0.10;99.90;;;;;;5037388;28;20229;-62
2022/03/01 00:48:19;;;;;;;22.20;14.50;;;0.10;99.90;;;;;;5037384;28;20209;-62
2022/03/01 00:50:46;;;;;;;27.95;15.77;;;0.10;99.90;;;;;;5037346;28;20202;-62
2022/03/01 00:53:14;;;;;;;26.00;16.98;;;0.10;99.90;;;;;;5037298;28;20218;-62
2022/03/01 00:55:42;;;;;;;26.67;16.15;;;0.10;99.90;;;;;;5036792;28;20236;-61
2022/03/01 00:58:09;;;;;;;21.92;15.35;;;0.10;99.90;;;;;;5036590;28;20210;-62
2022/03/01 01:00:36;;;;;;;23.95;14.85;;;0.10;99.90;;;;;;5040454;28;20202;-62
2022/03/01 01:03:05;;;;;;;24.55;15.48;;;0.00;99.90;;;;;;5042396;28;20198;-62
2022/03/01 01:05:32;;;;;;;24.50;15.38;;;0.00;99.90;;;;;;5043172;28;20222;-62
2022/03/01 01:07:59;;;;;;;21.38;14.10;;;0.00;99.90;;;;;;5043233;28;20202;-61
2022/03/01 01:10:26;;;;;;;21.33;13.68;;;0.00;99.90;;;;;;5043511;28;20202;-62
2022/03/01 01:12:54;;;;;;;21.63;15.40;;;0.00;99.90;;;;;;5040920;28;20658;-61
2022/03/01 01:15:21;;;;;;;22.50;13.50;;;0.00;99.90;;;;;;5041819;28;20214;-60
2022/03/01 01:17:48;;;;;;;22.65;13.05;;;0.00;99.90;;;;;;5041047;28;20234;-61
2022/03/01 01:20:18;;;;;;;21.33;13.88;;;-0.10;99.90;;;;;;5040727;28;20225;-61
2022/03/01 01:22:44;;;;;;;22.55;13.70;;;-0.10;99.90;;;;;;5038763;28;20213;-61
2022/03/01 01:25:13;;;;;;;19.98;12.98;;;0.00;99.90;;;;;;5038143;28;20194;-61
2022/03/01 01:27:43;;;;;;;21.60;13.40;;;0.00;99.90;;;;;;5038824;28;20214;-62
2022/03/01 01:30:12;;;;;;;21.30;13.20;;;0.00;99.90;;;;;;5038569;28;20689;-60
2022/03/01 01:32:40;;;;;;;19.25;12.68;;;-0.10;99.90;;;;;;5038711;28;20205;-61
2022/03/01 01:35:09;;;;;;;18.10;12.43;;;-0.10;99.90;;;;;;5038786;28;20218;-61
2022/03/01 01:37:38;;;;;;;22.05;14.48;;;-0.10;99.90;;;;;;5037507;28;20553;-62
2022/03/01 01:40:07;;;;;;;18.38;11.75;;;-0.10;99.90;;;;;;5038070;28;20666;-61
2022/03/01 01:42:34;;;;;;;19.17;12.00;;;-0.20;99.90;;;;;;5037172;28;20198;-61
2022/03/01 01:45:02;;;;;;;17.98;11.60;;;-0.20;99.90;;;;;;5036891;28;20202;-61
2022/03/01 01:47:29;;;;;;;23.42;13.02;;;-0.30;99.90;;;;;;5038421;28;20198;-62
2022/03/01 01:49:56;;;;;;;19.40;12.85;;;-0.30;99.90;;;;;;5045133;28;20206;-61
2022/03/01 01:52:25;;;;;;;19.55;11.43;;;-0.30;99.90;;;;;;5051763;28;20554;-62
2022/03/01 01:54:54;;;;;;;18.65;12.52;;;-0.30;99.90;;;;;;5052807;28;20225;-61
2022/03/01 01:57:25;;;;;;;23.92;12.77;;;-0.30;99.90;;;;;;5044403;28;20222;-62
2022/03/01 01:59:53;;;;;;;21.80;12.60;;;-0.40;99.90;;;;;;5038134;28;20194;-61
2022/03/01 02:02:22;;;;;;;18.27;11.15;;;-0.40;99.90;;;;;;5036703;28;20209;-62
2022/03/01 02:04:49;;;;;;;20.10;11.32;;;-0.30;99.90;;;;;;5036824;28;20194;-61
2022/03/01 02:07:17;;;;;;;18.77;12.35;;;-0.30;99.90;;;;;;5036680;28;20230;-60
2022/03/01 02:09:44;;;;;;;18.80;12.27;;;-0.20;99.90;;;;;;5036881;28;20202;-62
2022/03/01 02:12:13;;;;;;;20.83;12.10;;;-0.20;99.90;;;;;;5035952;28;20198;-61
2022/03/01 02:14:41;;;;;;;18.05;11.27;;;-0.20;99.90;;;;;;5035280;28;20698;-61
2022/03/01 02:17:10;;;;;;;15.30;11.07;;;-0.20;99.90;;;;;;5035487;28;20640;-62
2022/03/01 02:19:38;;;;;;;16.58;11.50;;;-0.20;99.90;;;;;;5035645;28;20632;-60
2022/03/01 02:22:08;;;;;;;19.30;11.63;;;-0.20;99.90;;;;;;5035296;28;20198;-61
2022/03/01 02:24:35;;;;;;;19.27;11.40;;;-0.20;99.90;;;;;;5035184;28;20203;-62
2022/03/01 02:27:04;;;;;;;18.50;11.30;;;-0.20;99.90;;;;;;5034706;28;20262;-61
2022/03/01 02:29:32;;;;;;;16.30;10.50;;;-0.20;99.90;;;;;;5035146;28;20285;-62
2022/03/01 02:32:02;;;;;;;18.00;11.35;;;-0.20;99.90;;;;;;5034847;28;20202;-60
2022/03/01 02:34:30;;;;;;;17.95;11.77;;;-0.20;99.90;;;;;;5034838;28;20222;-62
2022/03/01 02:36:57;;;;;;;20.38;11.25;;;-0.20;99.90;;;;;;5035675;28;20570;-61
2022/03/01 02:39:25;;;;;;;15.55;9.88;;;-0.20;99.90;;;;;;5034536;28;20205;-62
2022/03/01 02:41:52;;;;;;;19.17;10.45;;;-0.20;99.90;;;;;;5037147;28;20597;-62
2022/03/01 02:44:20;;;;;;;15.32;11.80;;;-0.20;99.90;;;;;;5043071;28;20209;-62
2022/03/01 02:46:47;;;;;;;14.32;9.25;;;-0.30;99.90;;;;;;5043964;28;20225;-61
2022/03/01 02:49:14;;;;;;;17.40;10.93;;;-0.30;99.90;;;;;;5045720;28;20202;-62
2022/03/01 02:51:41;;;;;;;15.23;9.48;;;-0.30;99.90;;;;;;5041286;28;20202;-62
2022/03/01 02:54:09;;;;;;;16.95;10.52;;;-0.30;99.90;;;;;;5041304;28;20202;-61
2022/03/01 02:56:39;;;;;;;16.73;10.43;;;-0.30;99.90;;;;;;5034578;28;20229;-61
2022/03/01 02:59:06;;;;;;;17.30;9.90;;;-0.30;99.90;;;;;;5034841;28;20198;-60
2022/03/01 03:01:34;;;;;;;15.15;10.85;;;-0.30;99.90;;;;;;5034300;28;20205;-62
2022/03/01 03:04:01;;;;;;;18.33;9.88;;;-0.20;99.90;;;;;;5034666;28;20226;-62
2022/03/01 03:06:28;;;;;;;12.82;9.05;;;-0.20;99.90;;;;;;5034293;28;20214;-61
2022/03/01 03:08:56;;;;;;;15.20;11.70;;;-0.20;99.90;;;;;;5034687;28;20211;-61
2022/03/01 03:11:23;;;;;;;15.63;10.73;;;-0.10;99.90;;;;;;5034713;28;20256;-61
2022/03/01 03:13:52;;;;;;;16.65;9.80;;;0.00;99.90;;;;;;5035012;28;20198;-62
2022/03/01 03:16:19;;;;;;;17.88;9.80;;;0.00;99.90;;;;;;5034383;28;20253;-62
2022/03/01 03:18:46;;;;;;;14.30;9.85;;;0.00;99.70;;;;;;5034340;28;20209;-63
2022/03/01 03:21:14;;;;;;;16.30;9.15;;;0.10;99.60;;;;;;5034168;28;20206;-62
2022/03/01 03:23:41;;;;;;;15.43;8.82;;;0.10;99.50;;;;;;5034205;28;20303;-62
2022/03/01 03:26:08;;;;;;;13.00;8.88;;;0.10;99.20;;;;;;5033885;28;20234;-62
2022/03/01 03:28:35;;;;;;;17.60;10.50;;;0.10;99.10;;;;;;5033843;28;20682;-62
2022/03/01 03:31:04;;;;;;;17.90;10.50;;;0.10;99.00;;;;;;5033587;28;20206;-62
2022/03/01 03:33:31;;;;;;;16.77;10.00;;;0.10;98.90;;;;;;5033957;28;20210;-61
2022/03/01 03:35:59;;;;;;;20.52;10.38;;;0.10;98.90;;;;;;5033340;28;20237;-61
2022/03/01 03:38:26;;;;;;;18.92;10.23;;;0.10;98.90;;;;;;5033779;28;20211;-62
2022/03/01 03:40:54;;;;;;;17.05;10.30;;;0.10;99.00;;;;;;5033915;28;20206;-62
2022/03/01 03:43:21;;;;;;;16.80;9.80;;;0.00;98.90;;;;;;5033992;28;20213;-62
2022/03/01 03:45:48;;;;;;;15.48;9.63;;;0.10;99.00;;;;;;5033363;28;20218;-61
2022/03/01 03:48:16;;;;;;;17.25;10.00;;;0.00;98.80;;;;;;5033333;28;20203;-60
2022/03/01 03:50:44;;;;;;;16.70;9.90;;;0.00;98.80;;;;;;5033664;28;20213;-61
2022/03/01 03:53:11;;;;;;;17.95;10.07;;;0.00;98.70;;;;;;5034349;28;20214;-62
2022/03/01 03:55:38;;;;;;;15.95;9.77;;;0.00;98.70;;;;;;5033541;28;20229;-60
2022/03/01 03:58:05;;;;;;;17.08;9.48;;;0.00;98.70;;;;;;5033583;28;20293;-62
2022/03/01 04:00:33;;;;;;;14.45;9.30;;;0.00;98.70;;;;;;5032932;28;20202;-62
2022/03/01 04:03:00;;;;;;;16.45;10.15;;;0.00;98.60;;;;;;5033681;28;20293;-62
2022/03/01 04:05:28;;;;;;;14.27;9.38;;;0.00;98.60;;;;;;5034186;28;20221;-62
2022/03/01 04:09:23;;;;;;;15.90;10.35;;;0.00;98.40;;;;;;5091244;27;20546;-62
2022/03/01 04:11:50;;;;;;;16.30;10.38;;;0.00;98.50;;;;;;5091088;28;20205;-62
2022/03/01 04:14:17;;;;;;;19.73;12.50;;;0.00;98.50;;;;;;5090712;28;20695;-62
2022/03/01 04:16:45;;;;;;;16.52;10.70;;;0.00;98.50;;;;;;5090817;28;20256;-62
2022/03/01 04:19:22;;;;;;;15.55;10.15;;;0.10;98.40;;;;;;5095398;28;20204;-60
2022/03/01 04:21:50;;;;;;;15.10;11.00;;;0.10;98.20;;;;;;5091626;28;20540;-62
2022/03/01 04:24:17;;;;;;;15.48;10.40;;;0.00;98.30;;;;;;5091566;28;20196;-61
2022/03/01 04:26:45;;;;;;;18.08;11.60;;;0.10;98.20;;;;;;5093364;28;20251;-62
2022/03/01 04:29:13;;;;;;;17.10;10.65;;;0.00;98.40;;;;;;5091528;28;20224;-61
2022/03/01 04:31:40;;;;;;;21.30;13.00;;;0.00;98.40;;;;;;5090344;28;20201;-61
2022/03/01 04:34:07;;;;;;;16.85;10.80;;;0.10;98.50;;;;;;5090435;28;20204;-62
2022/03/01 04:36:34;;;;;;;18.60;12.15;;;0.10;98.40;;;;;;5089803;28;20716;-62
2022/03/01 04:39:01;;;;;;;16.45;11.25;;;0.10;98.40;;;;;;5089929;28;20196;-61
2022/03/01 04:41:28;;;;;;;16.77;11.05;;;0.10;98.40;;;;;;5090261;28;20200;-61
2022/03/01 04:43:57;;;;;;;20.00;12.20;;;0.10;98.60;;;;;;5090067;28;20200;-61
2022/03/01 04:46:24;;;;;;;17.23;11.20;;;0.10;98.70;;;;;;5089979;28;20235;-60
2022/03/01 04:48:51;;;;;;;22.90;13.43;;;0.10;98.70;;;;;;5089839;28;20227;-61
2022/03/01 04:51:21;;;;;;;16.83;11.07;;;0.20;98.80;;;;;;5092431;28;20227;-61
2022/03/01 04:53:48;;;;;;;19.02;12.65;;;0.20;98.60;;;;;;5100511;28;20189;-61
2022/03/01 04:56:15;;;;;;;20.95;12.57;;;0.20;98.50;;;;;;5101884;28;20217;-61
2022/03/01 04:58:42;;;;;;;18.85;11.63;;;0.20;98.60;;;;;;5101114;28;20212;-60
2022/03/01 05:01:11;;;;;;;19.20;11.07;;;0.20;98.60;;;;;;5098311;28;20200;-60
2022/03/01 05:03:38;;;;;;;21.25;10.95;;;0.30;98.60;;;;;;5090879;28;20208;-63
2022/03/01 05:06:05;;;;;;;17.17;10.35;;;0.30;98.60;;;;;;5090799;28;20299;-61
2022/03/01 05:08:32;;;;;;;22.38;12.40;;;0.30;98.60;;;;;;5090288;28;20224;-61
2022/03/01 05:10:59;;;;;;;16.67;11.55;;;0.30;98.40;;;;;;5090902;28;20669;-61
2022/03/01 05:13:27;;;;;;;20.52;11.98;;;0.30;98.40;;;;;;5091167;28;20209;-62
2022/03/01 05:15:54;;;;;;;16.98;11.85;;;0.30;98.40;;;;;;5090961;28;20229;-61
2022/03/01 05:18:23;;;;;;;24.20;13.45;;;0.40;98.40;;;;;;5090438;28;20660;-62
2022/03/01 05:20:50;;;;;;;21.73;11.95;;;0.40;98.40;;;;;;5075696;28;20201;-62
2022/03/01 05:23:17;;;;;;;20.85;12.55;;;0.40;98.30;;;;;;5076191;28;20669;-61
2022/03/01 05:25:44;;;;;;;17.95;11.57;;;0.40;98.20;;;;;;5076205;28;20232;-62
2022/03/01 05:28:11;;;;;;;17.27;11.55;;;0.40;98.10;;;;;;5078245;28;20221;-61
2022/03/01 05:30:39;;;;;;;25.20;11.80;;;0.40;98.00;;;;;;5079815;28;20200;-61
2022/03/01 05:33:06;;;;;;;19.60;11.82;;;0.30;97.90;;;;;;5079650;28;20568;-63
2022/03/01 05:35:35;;;;;;;18.40;11.32;;;0.30;97.80;;;;;;5080411;28;20217;-62
2022/03/01 05:38:02;;;;;;;21.67;13.50;;;0.40;97.90;;;;;;5080127;28;20673;-61
2022/03/01 05:40:32;;;;;;;21.48;11.57;;;0.30;97.70;;;;;;5080866;28;20205;-62
2022/03/01 05:42:59;;;;;;;17.45;10.77;;;0.30;97.70;;;;;;5079481;28;20206;-62
2022/03/01 05:45:27;;;;;;;20.67;11.13;;;0.30;97.70;;;;;;5088491;28;20217;-61
2022/03/01 05:47:56;;;;;;;18.77;10.82;;;0.40;97.80;;;;;;5091211;28;20221;-62
2022/03/01 05:50:23;;;;;;;18.90;11.30;;;0.40;98.00;;;;;;5088867;28;20200;-61
2022/03/01 05:52:52;;;;;;;20.00;10.27;;;0.40;97.80;;;;;;5078130;28;20610;-60
2022/03/01 05:55:19;;;;;;;18.63;11.57;;;0.40;97.80;;;;;;5076273;28;20201;-61
2022/03/01 05:57:46;;;;;;;19.33;10.82;;;0.40;97.60;;;;;;5076266;28;20200;-62
2022/03/01 06:00:17;;;;;;;16.80;11.52;;;0.50;97.50;;;;;;5078015;28;20209;-61
2022/03/01 06:02:45;;;;;;;17.55;10.43;;;0.40;97.40;;;;;;5084009;28;20200;-59
2022/03/01 06:05:14;;;;;;;18.92;10.93;;;0.40;97.40;;;;;;5082312;28;20669;-61
2022/03/01 06:07:41;;;;;;;17.02;11.27;;;0.40;97.30;;;;;;5075848;28;20371;-60
2022/03/01 06:10:11;;;;;;;17.75;10.65;;;0.50;97.30;;;;;;5075645;28;20186;-60
2022/03/01 06:12:38;;;;;;;20.48;11.98;;;0.50;97.30;;;;;;5075843;28;20291;-61
2022/03/01 06:15:06;;;;;;;16.25;10.93;;;0.50;97.20;;;;;;5075411;28;20642;-62
2022/03/01 06:17:33;;;;;;;20.02;11.50;;;0.60;97.20;;;;;;5076334;28;20558;-61
2022/03/01 06:20:01;;;;;;;17.13;11.18;;;0.60;97.10;;;;;;5075683;28;20288;-61
2022/03/01 06:22:29;;;;;;;19.23;11.45;;;0.60;97.00;;;;;;5075692;28;20297;-61
2022/03/01 06:24:56;;;;;;;19.00;11.15;;;0.70;96.90;;;;;;5076085;28;20250;-61
2022/03/01 06:27:25;;;;;;;17.25;10.93;;;0.70;96.80;;;;;;5075588;28;20312;-61
2022/03/01 06:29:52;;;;;;;17.13;11.10;;;0.80;96.80;;;;;;5075727;28;20285;-60
2022/03/01 06:32:19;;;;;;;17.33;12.05;;;0.80;96.60;;;;;;5079761;28;20205;-60
2022/03/01 06:34:47;;;;;;;22.15;11.50;;;0.90;96.30;;;;;;5089117;28;20228;-60
2022/03/01 06:37:14;;;;;;;18.30;11.20;;;0.90;96.20;;;;;;5091039;28;20259;-60
2022/03/01 06:39:42;;;;;;;19.02;11.27;;;1.00;96.10;;;;;;5091738;28;20197;-61
2022/03/01 06:42:10;;;;;;;16.08;10.82;;;1.00;95.90;;;;;;5092828;28;20208;-61
2022/03/01 06:44:39;;;;;;;16.90;10.95;;;1.10;95.80;;;;;;5086899;28;20205;-60
2022/03/01 06:47:06;;;;;;;17.30;11.15;;;1.10;95.50;;;;;;5081002;28;20229;-60
2022/03/01 06:49:34;;;;;;;20.25;11.43;;;1.20;95.60;;;;;;5081924;28;20309;-60
2022/03/01 06:52:02;;;;;;;15.77;11.07;;;1.30;95.50;;;;;;5080149;28;20213;-60
2022/03/01 06:54:29;;;;;;;17.67;11.77;;;1.40;95.30;;;;;;5080322;28;20643;-63
2022/03/01 06:56:57;;;;;;;18.00;11.57;;;1.50;95.10;;;;;;5077789;28;20270;-62
2022/03/01 06:59:26;;;;;;;17.98;11.32;;;1.50;94.80;;;;;;5076350;28;20197;-61
2022/03/01 07:01:55;;;;;;;18.90;11.98;;;1.60;94.60;;;;;;5076584;28;20220;-62
2022/03/01 07:04:22;;;;;;;21.70;11.48;;;1.70;94.30;;;;;;5076404;28;20201;-60
2022/03/01 07:06:49;;;;;;;14.63;10.50;;;1.80;94.10;;;;;;5077944;28;20236;-62
2022/03/01 07:09:16;;;;;;;18.13;10.75;;;1.80;93.90;;;;;;5076275;28;20232;-61
2022/03/01 07:11:43;;;;;;;17.85;11.27;;;1.90;93.80;;;;;;5080927;28;20205;-62
2022/03/01 07:14:10;;;;;;;17.50;10.68;;;2.00;93.60;;;;;;5082431;28;20205;-63
2022/03/01 07:16:37;;;;;;;15.07;10.43;;;2.10;93.20;;;;;;5086283;28;20224;-62
2022/03/01 07:19:05;;;;;;;14.95;11.15;;;2.20;93.10;;;;;;5084656;28;20193;-62
2022/03/01 07:21:33;;;;;;;17.30;10.98;;;2.30;92.90;;;;;;5079105;28;20201;-62
2022/03/01 07:24:00;;;;;;;16.40;11.02;;;2.40;92.60;;;;;;5074751;28;20208;-61
2022/03/01 07:26:27;;;;;;;17.10;10.73;;;2.50;92.20;;;;;;5075293;28;20221;-63
2022/03/01 07:28:54;;;;;;;15.57;11.35;;;2.60;91.80;;;;;;5074798;28;20221;-60
2022/03/01 07:31:21;;;;;;;17.55;10.80;;;2.70;91.50;;;;;;5074862;28;20204;-62
2022/03/01 07:33:49;;;;;;;13.90;10.30;;;2.90;91.20;;;;;;5075899;28;20212;-63
2022/03/01 07:36:18;;;;;;;20.42;11.50;;;3.00;90.80;;;;;;5085274;28;20221;-62
2022/03/01 07:38:45;;;;;;;19.17;11.27;;;3.00;90.20;;;;;;5086796;28;20292;-62
2022/03/01 07:41:12;;;;;;;16.00;11.05;;;3.00;89.90;;;;;;5087849;28;20537;-62
2022/03/01 07:43:39;;;;;;;18.95;10.80;;;3.00;89.70;;;;;;5085714;28;20201;-63
2022/03/01 07:46:11;;;;;;;16.77;10.20;;;3.10;89.90;;;;;;5080531;28;20231;-61
2022/03/01 07:48:38;;;;;;;16.48;11.02;;;3.30;89.30;;;;;;5078828;28;20201;-61
2022/03/01 07:51:05;;;;;;;15.07;10.20;;;3.40;88.50;;;;;;5084808;28;20205;-63
2022/03/01 07:53:33;;;;;;;19.58;10.43;;;3.50;87.90;;;;;;5078110;28;20677;-61
2022/03/01 07:56:00;;;;;;;14.60;10.55;;;3.60;87.20;;;;;;5073601;28;20220;-63
2022/03/01 07:58:27;;;;;;;31.10;11.82;;;3.80;86.50;;;;;;5077559;28;20220;-63
2022/03/01 08:00:55;;;;;;;15.32;10.80;;;3.80;85.50;;;;;;5081126;28;20200;-63
2022/03/01 08:03:22;;;;;;;14.93;10.60;;;3.90;84.30;;;;;;5074023;28;20209;-62
2022/03/01 08:05:49;;;;;;;17.52;11.05;;;3.90;83.70;;;;;;5073226;28;20248;-61
2022/03/01 08:08:16;;;;;;;16.25;10.80;;;4.00;83.70;;;;;;5073711;28;20719;-61
2022/03/01 08:10:45;;;;;;;16.83;11.48;;;4.00;83.10;;;;;;5073690;28;20707;-62
2022/03/01 08:13:12;;;;;;;16.95;11.13;;;4.10;82.70;;;;;;5073603;28;20205;-60
2022/03/01 08:15:39;;;;;;;15.40;9.90;;;4.20;82.00;;;;;;5073961;28;20232;-62
2022/03/01 08:18:07;;;;;;;19.65;12.13;;;4.30;81.30;;;;;;5076303;28;20554;-63
2022/03/01 08:20:34;;;;;;;15.02;9.80;;;4.30;80.70;;;;;;5075056;28;20201;-62
2022/03/01 08:23:02;;;;;;;13.75;9.45;;;4.40;80.00;;;;;;5074587;28;20204;-62
2022/03/01 08:25:29;;;;;;;15.07;10.48;;;4.50;79.80;;;;;;5074192;28;20247;-62
2022/03/01 08:27:58;;;;;;;14.60;9.27;;;4.60;78.90;;;;;;5074587;28;20201;-61
2022/03/01 08:30:26;;;;;;;15.77;11.25;;;4.70;78.10;;;;;;5074918;28;20335;-62
2022/03/01 08:32:54;;;;;;;14.85;10.38;;;4.80;76.90;;;;;;5074071;28;20221;-68
2022/03/01 08:35:21;;;;;;;14.93;10.18;;;4.90;76.00;;;;;;5073744;28;20201;-62
2022/03/01 08:37:49;;;;;;;18.48;9.65;;;5.10;75.30;;;;;;5073613;28;20201;-63
2022/03/01 08:40:18;;;;;;;14.55;10.30;;;5.20;74.40;;;;;;5073967;28;20197;-63
2022/03/01 08:42:46;;;;;;;17.17;12.20;;;5.20;72.70;;;;;;5073822;28;20201;-62
2022/03/01 08:45:15;;;;;;;16.77;11.88;;;5.20;71.30;;;;;;5073580;28;20649;-63
2022/03/01 08:47:42;;;;;;;15.05;10.45;;;5.20;71.10;;;;;;5073107;28;20201;-61
2022/03/01 08:50:11;;;;;;;15.70;10.23;;;5.30;71.20;;;;;;5072806;28;20217;-63
2022/03/01 08:52:39;;;;;;;14.00;9.57;;;5.40;71.00;;;;;;5073054;28;20201;-62
2022/03/01 08:55:07;;;;;;;13.25;9.65;;;5.50;69.70;;;;;;5075183;28;20669;-62
2022/03/01 08:57:35;;;;;;;14.77;10.18;;;5.70;69.20;;;;;;5077106;28;20216;-61
2022/03/01 09:00:03;;;;;;;14.02;10.30;;;5.80;68.00;;;;;;5076928;28;20223;-62
2022/03/01 09:02:31;;;;;;;15.80;11.02;;;5.90;66.90;;;;;;5077107;28;20227;-62
2022/03/01 09:04:58;;;;;;;12.60;10.15;;;6.10;66.10;;;;;;5077922;28;20216;-62
2022/03/01 09:07:25;;;;;;;12.95;9.73;;;6.20;65.00;;;;;;5077404;28;20312;-62
2022/03/01 09:09:53;;;;;;;14.25;9.60;;;6.30;64.00;;;;;;5078362;28;20205;-62
2022/03/01 09:12:20;;;;;;;13.85;10.20;;;6.40;63.30;;;;;;5077407;28;20204;-62
2022/03/01 09:14:47;;;;;;;16.05;9.98;;;6.50;62.50;;;;;;5078398;28;20197;-63
2022/03/01 09:17:14;;;;;;;14.50;10.75;;;6.50;62.00;;;;;;5078170;28;20622;-62
2022/03/01 09:19:42;;;;;;;13.38;9.25;;;6.60;61.50;;;;;;5077754;28;20711;-63
2022/03/01 09:22:10;;;;;;;13.32;9.55;;;6.70;60.80;;;;;;5077298;28;20201;-63
2022/03/01 09:24:39;;;;;;;12.57;9.80;;;6.70;60.20;;;;;;5077198;28;20562;-63
2022/03/01 09:27:06;;;;;;;13.30;9.80;;;6.70;59.90;;;;;;5077297;28;20221;-62
2022/03/01 09:29:34;;;;;;;13.02;9.85;;;6.70;59.80;;;;;;5077305;28;20707;-63
2022/03/01 09:32:02;;;;;;;12.65;9.98;;;6.80;59.90;;;;;;5076758;28;20208;-63
2022/03/01 09:34:29;;;;;;;12.48;8.95;;;6.80;59.40;;;;;;5076286;28;20213;-63
2022/03/01 09:36:57;;;;;;;15.93;9.48;;;6.90;59.10;;;;;;5076327;28;20583;-62
2022/03/01 09:39:24;;;;;;;16.60;11.20;;;7.00;58.60;;;;;;5076513;28;20193;-61
2022/03/01 09:41:53;;;;;;;13.32;9.80;;;7.00;58.10;;;;;;5076503;28;20218;-62
2022/03/01 09:44:20;;;;;;;11.77;9.07;;;7.00;57.60;;;;;;5076542;28;20209;-64
2022/03/01 09:46:47;;;;;;;14.45;10.60;;;7.00;57.50;;;;;;5076525;28;20221;-62
2022/03/01 09:49:16;;;;;;;13.60;9.75;;;7.00;57.30;;;;;;5076388;28;20557;-63
2022/03/01 09:51:43;;;;;;;12.38;9.35;;;7.20;57.00;;;;;;5075916;28;20266;-63
2022/03/01 09:54:12;;;;;;;12.02;9.45;;;7.30;56.50;;;;;;5076090;28;20573;-62
2022/03/01 09:56:39;;;;;;;14.63;9.45;;;7.40;56.20;;;;;;5076041;28;20225;-63
2022/03/01 09:59:06;;;;;;;15.43;9.35;;;7.40;56.00;;;;;;5075375;28;20201;-63
2022/03/01 10:01:33;;;;;;;13.18;10.07;;;7.40;55.90;;;;;;5082580;28;20218;-62
2022/03/01 10:04:10;;;;;;;14.75;10.40;;;7.50;55.70;;;;;;5082325;28;20197;-62
2022/03/01 10:06:42;;;;;;;14.88;10.30;;;7.50;55.50;;;;;;5075652;28;20228;-62
2022/03/01 10:09:16;;;;;;;15.55;9.85;;;7.50;55.40;;;;;;5075195;28;20228;-63
2022/03/01 10:11:43;;;;;;;12.90;9.80;;;7.40;55.30;;;;;;5075667;28;20197;-62
2022/03/01 10:14:10;;;;;;;14.82;9.20;;;7.30;55.20;;;;;;5075531;28;20284;-63
2022/03/01 10:16:40;;;;;;;16.27;10.40;;;7.20;55.20;;;;;;5075515;28;20224;-62
2022/03/01 10:19:13;;;;;;;11.63;10.10;;;7.10;55.30;;;;;;5076414;28;20216;-63
2022/03/01 10:21:40;;;;;;;13.48;10.27;;;7.00;55.20;;;;;;5068771;22;20317;-62
2022/03/01 10:24:08;;;;;;;11.55;9.55;;;6.90;55.20;;;;;;5034615;28;20571;-62
2022/03/01 10:26:37;;;;;;;13.77;9.70;;;6.90;55.30;;;;;;5034321;28;20278;-63
2022/03/01 10:29:08;;;;;;;12.73;9.57;;;7.00;55.30;;;;;;5034748;28;20236;-62
2022/03/01 10:31:36;;;;;;;13.20;9.25;;;7.20;55.10;;;;;;5034639;28;20589;-62
2022/03/01 10:34:05;;;;;;;16.58;10.38;;;7.40;54.50;;;;;;5034706;28;20198;-62
2022/03/01 10:36:34;;;;;;;16.02;9.85;;;7.60;54.00;;;;;;5034721;28;20203;-62
2022/03/01 10:39:04;;;;;;;12.30;9.40;;;7.70;53.30;;;;;;5034330;28;20578;-63
2022/03/01 10:41:33;;;;;;;12.80;9.20;;;7.80;53.10;;;;;;5034182;28;20725;-62
2022/03/01 10:44:03;;;;;;;11.27;9.43;;;7.90;52.70;;;;;;5034086;28;20205;-63
2022/03/01 10:46:31;;;;;;;9.88;8.73;;;8.10;52.50;;;;;;5034400;28;20206;-62
2022/03/01 10:49:09;;;;;;;14.30;9.50;;;8.20;52.00;;;;;;5034000;28;20203;-62
2022/03/01 10:51:36;;;;;;;13.32;8.90;;;8.20;51.60;;;;;;5033787;28;20226;-62
2022/03/01 10:54:04;;;;;;;11.85;8.57;;;8.20;51.00;;;;;;5033838;28;20332;-63
2022/03/01 10:56:38;;;;;;;15.00;9.75;;;8.10;51.00;;;;;;5034346;28;20213;-63
2022/03/01 10:59:08;;;;;;;13.93;9.93;;;8.20;51.30;;;;;;5033983;28;20211;-63
2022/03/01 11:01:35;;;;;;;14.05;9.05;;;8.30;51.40;;;;;;5033740;28;20230;-61
2022/03/01 11:04:03;;;;;;;12.98;9.23;;;8.40;50.80;;;;;;5033680;28;20209;-61
2022/03/01 11:06:30;;;;;;;11.50;9.07;;;8.40;50.60;;;;;;5033880;28;20207;-62
2022/03/01 11:09:00;;;;;;;12.23;9.27;;;8.50;50.60;;;;;;5033661;28;20685;-62
2022/03/01 11:11:30;;;;;;;15.75;8.90;;;8.60;50.70;;;;;;5033321;28;20227;-63
2022/03/01 11:13:58;;;;;;;16.75;9.90;;;8.70;50.20;;;;;;5033606;28;20680;-63
2022/03/01 11:17:00;;;;;;;11.63;9.38;;;8.70;49.90;;;;;;5033429;28;20666;-63
2022/03/01 11:19:41;;;;;;;14.60;10.13;;;8.80;49.70;;;;;;5001231;28;20202;-62
2022/03/01 11:22:19;;;;;;;14.77;9.98;;;9.00;49.50;;;;;;5033069;28;20237;-62
2022/03/01 11:24:47;;;;;;;16.30;11.43;;;9.20;49.40;;;;;;5033635;28;20197;-62
2022/03/01 11:27:20;;;;;;;14.97;10.57;;;9.50;49.30;;;;;;5033240;28;20452;-61
2022/03/01 11:29:47;;;;;;;11.20;8.90;;;9.70;49.00;;;;;;5033503;28;20810;-63
2022/03/01 11:32:18;;;;;;;13.00;9.27;;;9.90;48.60;;;;;;5033317;28;20465;-63
2022/03/01 11:34:46;;;;;;;22.60;10.90;;;10.10;47.40;;;;;;5034163;28;20429;-62
2022/03/01 11:37:16;;;;;;;15.63;9.87;;;10.20;47.00;;;;;;5033019;28;20445;-63
2022/03/01 11:39:43;;;;;;;13.07;9.90;;;10.20;47.00;;;;;;5033056;28;20979;-63
2022/03/01 11:42:17;;;;;;;11.20;8.97;;;10.20;47.00;;;;;;5033353;28;20479;-62
2022/03/01 11:44:50;;;;;;;12.37;8.87;;;10.20;47.00;;;;;;5033288;28;20442;-62
2022/03/01 11:47:27;;;;;;;12.93;9.93;;;10.30;47.30;;;;;;5033437;28;20429;-62
2022/03/01 11:49:55;;;;;;;12.70;10.30;;;10.30;47.20;;;;;;5033114;28;20480;-63
2022/03/01 11:52:24;;;;;;;13.90;10.50;;;10.20;47.20;;;;;;5032685;28;20448;-62
2022/03/01 11:54:54;;;;;;;14.33;10.30;;;10.30;47.30;;;;;;5033848;28;20455;-64
2022/03/01 11:57:25;;;;;;;12.07;10.07;;;10.20;47.20;;;;;;5036020;28;20445;-63
2022/03/01 11:59:54;;;;;;;13.50;10.40;;;10.20;47.20;;;;;;5036347;28;20452;-63
2022/03/01 12:02:22;;;;;;;13.63;10.00;;;10.20;47.10;;;;;;5035821;28;20869;-62
2022/03/01 12:04:52;;;;;;;13.17;9.37;;;10.10;46.90;;;;;;5035311;28;20864;-63
2022/03/01 12:07:21;;;;;;;11.60;9.10;;;10.10;46.80;;;;;;5032931;28;20452;-63
2022/03/01 12:09:57;;;;;;;12.70;9.70;;;10.10;46.80;;;;;;5033102;28;20534;-64
2022/03/01 12:12:33;;;;;;;14.43;9.70;;;10.00;46.90;;;;;;5033019;28;20455;-64
2022/03/01 12:15:01;;;;;;;16.87;10.37;;;10.10;46.90;;;;;;5032477;28;20491;-63
2022/03/01 12:17:28;;;;;;;15.23;10.30;;;10.00;46.90;;;;;;5032736;28;20941;-63
2022/03/01 12:20:03;;;;;;;13.27;10.17;;;10.10;47.20;;;;;;5032487;28;20437;-63
2022/03/01 12:22:30;;;;;;;11.53;9.53;;;10.10;47.10;;;;;;5033147;28;20425;-64
2022/03/01 12:24:58;;;;;;;15.10;10.60;;;10.20;47.00;;;;;;5032899;28;20445;-62
2022/03/01 12:27:31;;;;;;;12.13;9.37;;;10.40;46.90;;;;;;5032657;28;20480;-62
2022/03/01 12:30:02;;;;;;;12.47;8.97;;;10.40;46.40;;;;;;5035130;28;20505;-64
2022/03/01 12:32:33;;;;;;;13.90;9.43;;;10.50;46.40;;;;;;5037349;28;20425;-63
2022/03/01 12:35:03;;;;;;;12.73;8.97;;;10.60;46.20;;;;;;5037500;28;20524;-63
2022/03/01 12:37:30;;;;;;;15.00;9.83;;;10.60;46.20;;;;;;5037049;28;20456;-63
2022/03/01 12:39:58;;;;;;;13.87;10.67;;;10.60;46.20;;;;;;5037196;28;20448;-63
2022/03/01 12:42:29;;;;;;;11.50;8.70;;;10.60;46.40;;;;;;5037134;28;20460;-63
2022/03/01 12:44:57;;;;;;;13.90;9.40;;;10.60;46.30;;;;;;5037331;28;20425;-63